Kezdőlap
METAR-TAF:

METAR-TAF

Repülőterek :

Brownwood, Texas, Amerikai Egyesült Államok

földrajzi szélesség: 31-48N, földrajzi hosszúság: 098-57W, magasság: 422 m

Jelenlegi meteorológiai megfigyelések

A jelentés 38 perccel ezelõtt készült, 04:35 UTC
Délkeleti szél 6 kt
Hőmérséklet 24°C
Páratartalom 89%
Légköri nyomás 1015 hPa
Látótávolság: 16.1 km
Kevés felhő 4300 lábon

METAR: KBWD 130435Z AUTO 13006KT 10SM FEW043 24/22 A2998 RMK AO1

Idő: 00:13 (05:13 UTC)


TAF: hiányzik

Meteorológiai megfigyelések és előrejelzések több, mint 4000 repülőtéren (METAR és TAF jelentéseket).

A térképen piros és sárga pontok jelzik az elérhető meteorológiai állomásokat.

Mozgassa az egeret a pont fölött, hogy megjelenjen az állomás neve.

Azután kattintson az időjárási megfigyelések és előrejelzések megtekintéséhez.

A térkép megváltoztatása: kattintson a fekete keresztel jelölt zöld gombra ráközelítéshez, a vonallal jelölt zöld gombra távolításhoz, vagy a zöld nyilakra a szomszédos térképek eléréséhez.


METAR-TAF: